Airfield :
LOGIN :

Register | Disclaimer

   EN    FR    IT 

 










Legend :    VFR   Marginal VFR   IFR   Intensive IFR   Very Intensive IFR
Visi :
Ceiling :
>= 8 km
>= 3000ft
5 to 8 km
1000 to 3000 ft
1500m to 5 km
500 to 1000 ft
800 to 1500m
200 to 500 ft
< 800m
< 200 ft
Symbols :   Thunderstorms  Fog  Heavy snow  Heavy precipitations  Wind > 20 kt
SIGMETs :     Misc.  Thunderstorms  Icing  Turbulence  Mountain Waves  Volcanic Ashes







- Airport Elevation : 1276 ft
- IATA code : STR


EDDS - Stuttgart

CURRENT METAR :
  • 240720Z 19003KT 150V240 9999 -RA FEW001 SCT025 BKN035 10/09 Q1026 NOSIG

EXPIRED METARs :
  • 240650Z VRB02KT 9999 -RA FEW001 SCT025 BKN040 10/08 Q1026 NOSIG
  • 240620Z VRB02KT 9999 -DZRA FEW017 BKN025 BKN042 10/08 Q1025 NOSIG
  • 240550Z VRB02KT 9999 -DZRA FEW017 BKN025 10/08 Q1025 NOSIG
  • 240520Z VRB01KT 9999 -DZ FEW011 BKN025 10/08 Q1025 NOSIG
  • 240450Z VRB01KT 9999 FEW014 BKN025 10/08 Q1025 NOSIG

TAF TAF EDDS
Valid from the 24 at 06:00 until the 25 at 06:00 UTC


240500Z 2406/2506 VRB03KT 9999 BKN015
PROB30
TEMPO 2406/2409 BKN012
No reported NOTAMs for that airfield.



MET'MAP, your aeronautical weather chart ! - Copyright ORBIFLY December 2007 - Disclaimer

ORBIFLY MET'MAP TEAM :

Programming & Development : Alexandra Zaïnal
Concept & Development : Baudouin d'Aumeries
Co-Development & Prog : Marc-Olivier Méhu
Technical & hardware support : Manuel Goepfert

Contact : metmap@orbifly.com




SOURCES & CREDITS :

   NOAA